Norfolk, Virginia
Current Conditions -  °F | °C
As of 2:51 AM on Friday 24 Oct 2014 (Local Time) from KORF Reporting Station
Clear Clear  
Wind Chill: 59°   Ceiling: Unl
Heat Index: 59°   Visibility: 10mi
Dew Point: 43°   Wind: 6mph
Humidity: 55%   Direction: NA
Pressure: 29.91"   Gusts: NA
Location:  36.85°N, 76.28°W
Report Text: KORF 240651Z AUTO VRB05KT 10SM CLR 15/06 A2991 RMK AO2 SLP129 T01500061 TSNO
Loading
Personal Weather Stations






























Interactive Weather Map New forecast layout! Learn more

10-Day Weather Forecast

Advertisements
Track Severe Weather on mobile